createdAt,value
2017-12-10T00:00:27.735Z,3.23
2017-12-10T00:01:54.931Z,3.23
2017-12-10T00:03:22.232Z,3.25
2017-12-10T00:04:49.547Z,3.20
2017-12-10T00:06:15.757Z,3.19
2017-12-10T00:07:42.960Z,3.20
2017-12-10T00:09:10.281Z,3.18
2017-12-10T00:10:38.578Z,3.18
2017-12-10T00:12:04.618Z,3.16
2017-12-10T00:13:32.975Z,3.19
2017-12-10T00:14:59.080Z,3.20
2017-12-10T00:16:26.402Z,3.23
2017-12-10T00:17:54.655Z,3.26
2017-12-10T00:19:20.928Z,3.25
2017-12-10T00:20:49.060Z,3.26
2017-12-10T00:22:15.498Z,3.29
2017-12-10T00:23:43.800Z,3.30
2017-12-10T00:25:10.038Z,3.33
2017-12-10T00:26:37.192Z,3.36
2017-12-10T00:28:05.205Z,3.37
2017-12-10T00:29:31.475Z,3.37
2017-12-10T00:30:58.643Z,3.38
2017-12-10T00:32:25.839Z,3.37
2017-12-10T00:33:53.053Z,3.31
2017-12-10T00:35:20.041Z,3.32
2017-12-10T00:36:47.242Z,3.31
2017-12-10T00:38:15.564Z,3.31
2017-12-10T00:39:41.954Z,3.33
2017-12-10T00:41:09.052Z,3.35
2017-12-10T00:42:37.008Z,3.36
2017-12-10T00:44:03.303Z,3.39
2017-12-10T00:45:31.499Z,3.39
2017-12-10T00:46:57.727Z,3.38
2017-12-10T00:48:24.955Z,3.38
2017-12-10T00:49:53.181Z,3.37
2017-12-10T00:51:20.423Z,3.38
2017-12-10T00:52:46.597Z,3.41
2017-12-10T00:54:14.873Z,3.42
2017-12-10T00:55:41.194Z,3.44
2017-12-10T00:57:08.448Z,3.46
2017-12-10T00:58:35.686Z,3.46
2017-12-10T01:00:03.926Z,3.44
2017-12-10T01:01:29.975Z,3.40
2017-12-10T01:02:57.326Z,3.41
2017-12-10T01:04:24.639Z,3.39
2017-12-10T01:05:51.976Z,3.42
2017-12-10T01:07:20.190Z,3.44
2017-12-10T01:08:47.525Z,3.47
2017-12-10T01:10:14.844Z,3.47
2017-12-10T01:11:41.038Z,3.50
2017-12-10T01:13:09.268Z,3.48
2017-12-10T01:14:36.436Z,3.48
2017-12-10T01:16:02.769Z,3.49
2017-12-10T01:17:29.936Z,3.50
2017-12-10T01:18:57.264Z,3.51
2017-12-10T01:20:24.474Z,3.52
2017-12-10T01:21:51.802Z,3.52
2017-12-10T01:23:19.075Z,3.53
2017-12-10T01:24:46.315Z,3.55
2017-12-10T01:26:13.557Z,3.56
2017-12-10T01:27:40.509Z,3.56
2017-12-10T01:29:08.608Z,3.55
2017-12-10T01:30:34.812Z,3.53
2017-12-10T01:32:02.139Z,3.52
2017-12-10T01:33:29.431Z,3.53
2017-12-10T01:34:57.752Z,3.53
2017-12-10T01:36:24.089Z,3.52
2017-12-10T01:37:51.331Z,3.50
2017-12-10T01:39:19.228Z,3.50
2017-12-10T01:40:46.535Z,3.50
2017-12-10T01:42:13.772Z,3.50
2017-12-10T01:43:39.970Z,3.50
2017-12-10T01:45:07.076Z,3.50
2017-12-10T01:46:35.297Z,3.48
2017-12-10T01:48:01.523Z,3.47
2017-12-10T01:49:29.650Z,3.46
2017-12-10T01:50:56.905Z,3.45
2017-12-10T01:52:24.339Z,3.46
2017-12-10T01:53:53.414Z,3.46
2017-12-10T01:55:17.825Z,3.47
2017-12-10T01:56:46.161Z,3.47
2017-12-10T01:58:13.247Z,3.46
2017-12-10T01:59:40.661Z,3.46
2017-12-10T02:01:07.678Z,3.46
2017-12-10T02:02:33.882Z,3.44
2017-12-10T02:04:01.177Z,3.44
2017-12-10T02:05:28.385Z,3.44
2017-12-10T02:06:56.712Z,3.43
2017-12-10T02:08:22.980Z,3.41
2017-12-10T02:09:51.328Z,3.34
2017-12-10T02:11:18.556Z,3.30
2017-12-10T02:12:44.955Z,3.27
2017-12-10T02:14:12.145Z,3.25
2017-12-10T02:15:39.126Z,3.25
2017-12-10T02:17:07.094Z,3.24
2017-12-10T02:18:33.528Z,3.23
2017-12-10T02:20:00.794Z,3.24
2017-12-10T02:21:29.065Z,3.26
2017-12-10T02:22:54.887Z,3.19
2017-12-10T02:24:23.218Z,3.16
2017-12-10T02:25:50.439Z,3.18
2017-12-10T02:27:17.625Z,3.19
2017-12-10T02:28:44.943Z,3.20
2017-12-10T02:30:12.228Z,3.20
2017-12-10T02:31:38.394Z,3.19
2017-12-10T02:33:05.553Z,3.19
2017-12-10T02:34:33.661Z,3.18
2017-12-10T02:35:59.939Z,3.17
2017-12-10T02:37:28.125Z,3.16
2017-12-10T02:38:54.445Z,3.18
2017-12-10T02:40:22.705Z,3.18
2017-12-10T02:41:48.957Z,3.18
2017-12-10T02:43:16.076Z,3.18
2017-12-10T02:44:44.158Z,3.18
2017-12-10T02:46:11.351Z,3.18
2017-12-10T02:47:37.495Z,3.18
2017-12-10T02:49:04.337Z,3.18
2017-12-10T02:50:32.514Z,3.19
2017-12-10T02:51:58.972Z,3.16
2017-12-10T02:53:26.182Z,3.14
2017-12-10T02:54:54.294Z,3.13
2017-12-10T02:56:20.515Z,3.13
2017-12-10T02:57:47.559Z,3.13
2017-12-10T02:59:14.808Z,3.15
2017-12-10T03:00:43.087Z,3.15
2017-12-10T03:02:09.380Z,3.14
2017-12-10T03:03:37.727Z,3.12
2017-12-10T03:05:03.717Z,3.12
2017-12-10T03:06:30.853Z,3.12
2017-12-10T03:07:57.914Z,3.11
2017-12-10T03:09:25.132Z,3.12
2017-12-10T03:10:52.330Z,3.12
2017-12-10T03:12:19.437Z,3.09
2017-12-10T03:13:47.556Z,3.10
2017-12-10T03:15:13.885Z,3.11
2017-12-10T03:16:41.172Z,3.12
2017-12-10T03:18:08.345Z,3.11
2017-12-10T03:19:36.594Z,3.11
2017-12-10T03:21:02.696Z,3.11
2017-12-10T03:22:29.953Z,3.11
2017-12-10T03:23:56.936Z,3.10
2017-12-10T03:25:25.330Z,3.10
2017-12-10T03:26:52.409Z,3.09
2017-12-10T03:28:19.624Z,3.02
2017-12-10T03:29:45.951Z,3.02
2017-12-10T03:31:14.155Z,3.03
2017-12-10T03:32:41.257Z,3.03
2017-12-10T03:34:07.438Z,3.02
2017-12-10T03:35:35.548Z,3.01
2017-12-10T03:37:01.811Z,3.00
2017-12-10T03:38:30.002Z,2.99
2017-12-10T03:39:56.197Z,2.98
2017-12-10T03:41:24.359Z,2.97
2017-12-10T03:42:50.497Z,2.96
2017-12-10T03:44:18.850Z,2.95
2017-12-10T03:45:46.049Z,2.92
2017-12-10T03:47:12.281Z,2.90
2017-12-10T03:48:40.309Z,2.87
2017-12-10T03:50:07.337Z,2.86
2017-12-10T03:51:33.773Z,2.85
2017-12-10T03:53:01.009Z,2.85
2017-12-10T03:54:28.346Z,2.83
2017-12-10T03:55:55.571Z,2.80
2017-12-10T03:57:22.682Z,2.79
2017-12-10T03:58:49.858Z,2.78
2017-12-10T04:00:17.993Z,2.74
2017-12-10T04:01:44.284Z,2.71
2017-12-10T04:03:12.514Z,2.69
2017-12-10T04:04:38.661Z,2.68
2017-12-10T04:06:06.152Z,2.67
2017-12-10T04:07:33.263Z,2.65
2017-12-10T04:09:01.566Z,2.65
2017-12-10T04:10:27.850Z,2.65
2017-12-10T04:11:55.032Z,2.64
2017-12-10T04:13:21.941Z,2.63
2017-12-10T04:14:49.245Z,2.62
2017-12-10T04:16:16.272Z,2.61
2017-12-10T04:17:44.439Z,2.60
2017-12-10T04:19:10.627Z,2.58
2017-12-10T04:20:38.605Z,2.58
2017-12-10T04:22:05.726Z,2.57
2017-12-10T04:23:32.875Z,2.55
2017-12-10T04:24:59.101Z,2.54
2017-12-10T04:26:27.485Z,2.52
2017-12-10T04:27:54.677Z,2.52
2017-12-10T04:29:21.869Z,2.50
2017-12-10T04:30:47.990Z,2.49
2017-12-10T04:32:16.100Z,2.46
2017-12-10T04:33:43.326Z,2.45
2017-12-10T04:35:10.536Z,2.44
2017-12-10T04:36:37.842Z,2.43
2017-12-10T04:38:04.815Z,2.43
2017-12-10T04:39:32.053Z,2.41
2017-12-10T04:40:58.189Z,2.40
2017-12-10T04:42:26.605Z,2.39
2017-12-10T04:43:52.567Z,2.37
2017-12-10T04:45:19.890Z,2.35
2017-12-10T04:46:47.162Z,2.34
2017-12-10T04:48:14.193Z,2.33
2017-12-10T04:49:42.542Z,2.32
2017-12-10T04:51:08.679Z,2.31
2017-12-10T04:52:35.936Z,2.29
2017-12-10T04:54:04.067Z,2.29
2017-12-10T04:55:31.329Z,2.28
2017-12-10T04:56:57.555Z,2.27
2017-12-10T04:58:25.759Z,2.26
2017-12-10T04:59:51.977Z,2.27
2017-12-10T05:01:19.248Z,2.26
2017-12-10T05:02:46.408Z,2.27
2017-12-10T05:04:14.776Z,2.27
2017-12-10T05:05:40.664Z,2.26
2017-12-10T05:07:08.861Z,2.26
2017-12-10T05:08:34.923Z,2.25
2017-12-10T05:10:01.999Z,2.25
2017-12-10T05:11:29.238Z,2.24
2017-12-10T05:12:56.495Z,2.25
2017-12-10T05:14:23.772Z,2.25
2017-12-10T05:15:51.996Z,2.24
2017-12-10T05:17:19.355Z,2.22
2017-12-10T05:18:45.441Z,2.21
2017-12-10T05:20:13.684Z,2.20
2017-12-10T05:21:40.913Z,2.21
2017-12-10T05:23:07.176Z,2.21
2017-12-10T05:24:34.071Z,2.22
2017-12-10T05:26:01.314Z,2.22
2017-12-10T05:27:28.536Z,2.22
2017-12-10T05:28:55.816Z,2.23
2017-12-10T05:30:23.913Z,2.23
2017-12-10T05:31:51.134Z,2.23
2017-12-10T05:33:18.417Z,2.25
2017-12-10T05:34:45.566Z,2.26
2017-12-10T05:36:12.803Z,2.27
2017-12-10T05:37:40.001Z,2.28
2017-12-10T05:39:07.214Z,2.30
2017-12-10T05:40:33.444Z,2.31
2017-12-10T05:42:00.709Z,2.32
2017-12-10T05:43:28.062Z,2.32
2017-12-10T05:44:56.138Z,2.33
2017-12-10T05:46:23.189Z,2.34
2017-12-10T05:47:50.372Z,2.35
2017-12-10T05:49:17.501Z,2.34
2017-12-10T05:50:44.808Z,2.36
2017-12-10T05:52:11.897Z,2.36
2017-12-10T05:53:37.996Z,2.37
2017-12-10T05:55:05.129Z,2.38
2017-12-10T05:56:32.412Z,2.38
2017-12-10T05:57:59.531Z,2.37
2017-12-10T05:59:26.691Z,2.36
2017-12-10T06:00:53.844Z,2.35
2017-12-10T06:02:20.930Z,2.34
2017-12-10T06:03:48.146Z,2.33
2017-12-10T06:05:16.164Z,2.32
2017-12-10T06:06:43.230Z,2.31
2017-12-10T06:08:10.430Z,2.30
2017-12-10T06:09:36.644Z,2.30
2017-12-10T06:11:04.707Z,2.29
2017-12-10T06:12:30.767Z,2.30
2017-12-10T06:13:57.844Z,2.31
2017-12-10T06:15:26.083Z,2.32
2017-12-10T06:16:52.383Z,2.32
2017-12-10T06:18:19.513Z,2.32
2017-12-10T06:19:46.743Z,2.34
2017-12-10T06:21:13.928Z,2.34
2017-12-10T06:22:42.127Z,2.35
2017-12-10T06:24:08.261Z,2.37
2017-12-10T06:27:02.544Z,2.37
2017-12-10T06:28:29.798Z,2.39
2017-12-10T06:29:58.165Z,2.40
2017-12-10T06:31:24.213Z,2.40
2017-12-10T06:32:52.486Z,2.41
2017-12-10T06:34:19.585Z,2.41
2017-12-10T06:35:46.931Z,2.43
2017-12-10T06:37:14.115Z,2.44
2017-12-10T06:38:40.343Z,2.43
2017-12-10T06:40:08.456Z,2.44
2017-12-10T06:41:35.612Z,2.45
2017-12-10T06:43:01.780Z,2.45
2017-12-10T06:44:29.955Z,2.44
2017-12-10T06:45:56.211Z,2.43
2017-12-10T06:47:23.104Z,2.42
2017-12-10T06:48:51.371Z,2.41
2017-12-10T06:50:17.620Z,2.42
2017-12-10T06:51:44.843Z,2.42
2017-12-10T06:53:11.991Z,2.41
2017-12-10T06:54:40.119Z,2.42
2017-12-10T06:56:07.148Z,2.41
2017-12-10T06:57:34.428Z,2.40
2017-12-10T06:59:01.636Z,2.40
2017-12-10T07:00:27.782Z,2.41
2017-12-10T07:01:56.114Z,2.42
2017-12-10T07:03:22.347Z,2.42
2017-12-10T07:04:50.503Z,2.40
2017-12-10T07:06:17.795Z,2.40
2017-12-10T07:07:44.080Z,2.39
2017-12-10T07:09:11.304Z,2.39
2017-12-10T07:10:39.524Z,2.38
2017-12-10T07:12:05.640Z,2.38
2017-12-10T07:13:33.822Z,2.38
2017-12-10T07:15:00.899Z,2.36
2017-12-10T07:16:27.094Z,2.36
2017-12-10T07:17:55.344Z,2.37
2017-12-10T07:19:21.675Z,2.38
2017-12-10T07:20:49.837Z,2.39
2017-12-10T07:22:16.080Z,2.41
2017-12-10T07:23:43.193Z,2.43
2017-12-10T07:25:11.528Z,2.44
2017-12-10T07:26:38.624Z,2.44
2017-12-10T07:28:04.779Z,2.45
2017-12-10T07:29:31.882Z,2.46
2017-12-10T07:31:00.179Z,2.45
2017-12-10T07:32:26.423Z,2.46
2017-12-10T07:33:53.575Z,2.47
2017-12-10T07:35:20.803Z,2.50
2017-12-10T07:36:49.099Z,2.52
2017-12-10T07:38:15.270Z,2.52
2017-12-10T07:39:43.482Z,2.53
2017-12-10T07:41:09.780Z,2.52
2017-12-10T07:42:38.001Z,2.51
2017-12-10T07:44:04.017Z,2.52
2017-12-10T07:45:31.232Z,2.53
2017-12-10T07:46:59.542Z,2.54
2017-12-10T07:48:25.594Z,2.54
2017-12-10T07:49:53.919Z,2.54
2017-12-10T07:51:20.138Z,2.55
2017-12-10T07:52:48.397Z,2.55
2017-12-10T07:54:14.680Z,2.55
2017-12-10T07:55:42.836Z,2.56
2017-12-10T07:57:08.693Z,2.57
2017-12-10T07:58:35.893Z,2.55
2017-12-10T08:00:03.234Z,2.53
2017-12-10T08:01:30.579Z,2.54
2017-12-10T08:02:58.591Z,2.53
2017-12-10T08:04:24.898Z,2.54
2017-12-10T08:05:52.066Z,2.54
2017-12-10T08:07:20.534Z,2.55
2017-12-10T08:08:47.769Z,2.55
2017-12-10T08:10:13.896Z,2.55
2017-12-10T08:11:41.112Z,2.55
2017-12-10T08:13:08.304Z,2.56
2017-12-10T08:14:36.466Z,2.57
2017-12-10T08:16:02.656Z,2.55
2017-12-10T08:17:30.898Z,2.55
2017-12-10T08:18:58.059Z,2.55
2017-12-10T08:20:25.271Z,2.53
2017-12-10T08:21:51.346Z,2.51
2017-12-10T08:23:19.557Z,2.51
2017-12-10T08:24:45.801Z,2.52
2017-12-10T08:26:12.973Z,2.53
2017-12-10T08:27:41.174Z,2.53
2017-12-10T08:29:08.477Z,2.53
2017-12-10T08:30:35.413Z,2.52
2017-12-10T08:32:02.692Z,2.50
2017-12-10T08:33:29.890Z,2.50
2017-12-10T08:34:56.135Z,2.48
2017-12-10T08:36:24.346Z,2.50
2017-12-10T08:37:51.634Z,2.51
2017-12-10T08:39:18.902Z,2.52
2017-12-10T08:40:46.062Z,2.52
2017-12-10T08:42:13.239Z,2.52
2017-12-10T08:43:40.414Z,2.51
2017-12-10T08:45:07.432Z,2.51
2017-12-10T08:46:34.940Z,2.52
2017-12-10T08:48:01.076Z,2.52
2017-12-10T08:49:28.326Z,2.53
2017-12-10T08:50:55.480Z,2.54
2017-12-10T08:52:22.654Z,2.53
2017-12-10T08:53:49.944Z,2.53
2017-12-10T08:55:17.941Z,2.54
2017-12-10T08:56:45.061Z,2.55
2017-12-10T08:58:12.311Z,2.54
2017-12-10T08:59:39.581Z,2.54
2017-12-10T09:01:06.718Z,2.56
2017-12-10T09:02:33.864Z,2.56
2017-12-10T09:04:01.103Z,2.54
2017-12-10T09:05:27.451Z,2.53
2017-12-10T09:06:54.456Z,2.50
2017-12-10T09:08:21.582Z,2.51
2017-12-10T09:09:49.854Z,2.51
2017-12-10T09:11:16.143Z,2.50
2017-12-10T09:12:44.356Z,2.51
2017-12-10T09:14:10.547Z,2.51
2017-12-10T09:15:37.795Z,2.51
2017-12-10T09:17:05.878Z,2.52
2017-12-10T09:18:33.020Z,2.52
2017-12-10T09:19:59.123Z,2.51
2017-12-10T09:21:27.407Z,2.51
2017-12-10T09:22:53.706Z,2.51
2017-12-10T09:24:20.961Z,2.50
2017-12-10T09:25:49.233Z,2.51
2017-12-10T09:27:15.369Z,2.47
2017-12-10T09:28:42.580Z,2.47
2017-12-10T09:30:10.869Z,2.47
2017-12-10T09:31:36.864Z,2.47
2017-12-10T09:33:03.886Z,2.48
2017-12-10T09:34:31.001Z,2.47
2017-12-10T09:35:58.418Z,2.50
2017-12-10T09:37:25.250Z,2.51
2017-12-10T09:38:52.514Z,2.51
2017-12-10T09:40:19.807Z,2.51
2017-12-10T09:41:48.115Z,2.53
2017-12-10T09:43:14.339Z,2.53
2017-12-10T09:44:41.457Z,2.52
2017-12-10T09:46:09.733Z,2.53
2017-12-10T09:47:36.804Z,2.53
2017-12-10T09:49:03.000Z,2.53
2017-12-10T09:50:31.198Z,2.53
2017-12-10T09:51:57.472Z,2.54
2017-12-10T09:53:24.827Z,2.55
2017-12-10T09:54:52.119Z,2.55
2017-12-10T09:56:19.431Z,2.55
2017-12-10T09:57:46.349Z,2.58
2017-12-10T09:59:14.537Z,2.58
2017-12-10T10:00:41.774Z,2.58
2017-12-10T10:02:08.929Z,2.57
2017-12-10T10:03:35.263Z,2.57
2017-12-10T10:05:02.243Z,2.59
2017-12-10T10:06:29.534Z,2.61
2017-12-10T10:07:57.696Z,2.63
2017-12-10T10:09:23.949Z,2.63
2017-12-10T10:10:52.277Z,2.63
2017-12-10T10:12:18.467Z,2.62
2017-12-10T10:13:45.807Z,2.64
2017-12-10T10:15:14.151Z,2.65
2017-12-10T10:16:40.480Z,2.64
2017-12-10T10:18:07.354Z,2.64
2017-12-10T10:19:35.674Z,2.65
2017-12-10T10:21:01.693Z,2.64
2017-12-10T10:22:28.907Z,2.65
2017-12-10T10:23:56.927Z,2.65
2017-12-10T10:25:23.270Z,2.65
2017-12-10T10:26:50.183Z,2.65
2017-12-10T10:28:18.326Z,2.65
2017-12-10T10:29:45.523Z,2.65
2017-12-10T10:31:12.743Z,2.62
2017-12-10T10:32:38.905Z,2.61
2017-12-10T10:34:06.995Z,2.62
2017-12-10T10:35:33.278Z,2.64
2017-12-10T10:37:00.362Z,2.63
2017-12-10T10:38:28.667Z,2.66
2017-12-10T10:39:55.868Z,2.65
2017-12-10T10:41:23.038Z,2.64
2017-12-10T10:42:50.410Z,2.66
2017-12-10T10:44:16.597Z,2.67
2017-12-10T10:45:44.842Z,2.71
2017-12-10T10:47:11.134Z,2.74
2017-12-10T10:48:38.299Z,2.77
2017-12-10T10:50:05.581Z,2.77
2017-12-10T10:51:33.871Z,2.78
2017-12-10T10:53:00.796Z,2.79
2017-12-10T10:54:27.040Z,2.80
2017-12-10T10:55:54.218Z,2.81
2017-12-10T10:57:21.269Z,2.82
2017-12-10T10:58:49.518Z,2.81
2017-12-10T11:00:16.764Z,2.82
2017-12-10T11:01:42.906Z,2.85
2017-12-10T11:03:10.002Z,2.85
2017-12-10T11:04:38.093Z,2.85
2017-12-10T11:06:04.234Z,2.86
2017-12-10T11:07:32.423Z,2.86
2017-12-10T11:08:59.816Z,2.86
2017-12-10T11:10:26.099Z,2.85
2017-12-10T11:11:54.376Z,2.85
2017-12-10T11:13:21.429Z,2.86
2017-12-10T11:14:48.441Z,2.86
2017-12-10T11:16:14.617Z,2.89
2017-12-10T11:17:42.856Z,2.91
2017-12-10T11:19:10.038Z,2.90
2017-12-10T11:20:36.043Z,2.90
2017-12-10T11:22:04.403Z,2.88
2017-12-10T11:23:30.666Z,2.88
2017-12-10T11:24:58.996Z,2.87
2017-12-10T11:26:25.270Z,2.87
2017-12-10T11:27:52.625Z,2.87
2017-12-10T11:29:19.777Z,2.87
2017-12-10T11:30:46.919Z,2.89
2017-12-10T11:32:13.892Z,2.92
2017-12-10T11:33:40.972Z,2.94
2017-12-10T11:35:09.221Z,2.98
2017-12-10T11:36:35.281Z,3.03
2017-12-10T11:38:02.510Z,3.05
2017-12-10T11:39:29.654Z,3.05
2017-12-10T11:40:57.856Z,3.02
2017-12-10T11:42:25.001Z,3.01
2017-12-10T11:43:52.046Z,2.98
2017-12-10T11:45:18.354Z,3.00
2017-12-10T11:46:45.558Z,3.02
2017-12-10T11:48:13.879Z,3.03
2017-12-10T11:49:40.931Z,3.01
2017-12-10T11:51:07.092Z,2.99
2017-12-10T11:52:34.196Z,2.97
2017-12-10T11:54:01.360Z,2.95
2017-12-10T11:55:29.502Z,2.95
2017-12-10T11:56:55.733Z,2.91
2017-12-10T11:58:23.011Z,2.88
2017-12-10T11:59:50.297Z,2.85
2017-12-10T12:01:17.545Z,2.84
2017-12-10T12:02:45.175Z,2.81
2017-12-10T12:04:12.393Z,2.82
2017-12-10T12:05:39.620Z,2.83
2017-12-10T12:07:06.892Z,2.85
2017-12-10T12:08:33.875Z,2.85
2017-12-10T12:10:02.281Z,2.86
2017-12-10T12:11:28.474Z,2.84
2017-12-10T12:12:56.679Z,2.83
2017-12-10T12:14:22.782Z,2.83
2017-12-10T12:15:50.009Z,2.84
2017-12-10T12:17:17.276Z,2.85
2017-12-10T12:18:45.530Z,2.86
2017-12-10T12:20:11.501Z,2.87
2017-12-10T12:21:39.944Z,2.87
2017-12-10T12:23:06.806Z,2.84
2017-12-10T12:24:33.183Z,2.83
2017-12-10T12:26:00.222Z,2.80
2017-12-10T12:27:27.475Z,2.76
2017-12-10T12:28:55.733Z,2.73
2017-12-10T12:30:22.016Z,2.69
2017-12-10T12:31:50.290Z,2.67
2017-12-10T12:33:16.526Z,2.67
2017-12-10T12:34:43.768Z,2.65
2017-12-10T12:36:12.083Z,2.65
2017-12-10T12:37:38.263Z,2.64
2017-12-10T12:39:05.415Z,2.63
2017-12-10T12:40:33.539Z,2.64
2017-12-10T12:41:59.693Z,2.66
2017-12-10T12:43:28.234Z,2.63
2017-12-10T12:44:55.490Z,2.63
2017-12-10T12:46:22.819Z,2.63
2017-12-10T12:47:50.083Z,2.61
2017-12-10T12:49:16.313Z,2.59
2017-12-10T12:50:43.499Z,2.58
2017-12-10T12:52:10.607Z,2.58
2017-12-10T12:53:37.996Z,2.57
2017-12-10T12:55:06.033Z,2.60
2017-12-10T12:56:32.304Z,2.55
2017-12-10T12:57:59.469Z,2.54
2017-12-10T12:59:26.748Z,2.51
2017-12-10T13:00:53.971Z,2.50
2017-12-10T13:02:21.114Z,2.46
2017-12-10T13:03:48.427Z,2.40
2017-12-10T13:05:16.564Z,2.37
2017-12-10T13:06:43.746Z,2.35
2017-12-10T13:08:11.009Z,2.33
2017-12-10T13:09:38.179Z,2.31
2017-12-10T13:11:04.210Z,2.31
2017-12-10T13:12:31.441Z,2.33
2017-12-10T13:13:59.458Z,2.30
2017-12-10T13:15:26.446Z,2.26
2017-12-10T13:16:53.622Z,2.27
2017-12-10T13:18:19.857Z,2.27
2017-12-10T13:19:46.987Z,2.28
2017-12-10T13:21:14.178Z,2.26
2017-12-10T13:22:41.407Z,2.25
2017-12-10T13:24:09.592Z,2.24
2017-12-10T13:25:36.778Z,2.23
2017-12-10T13:27:02.984Z,2.19
2017-12-10T13:28:30.307Z,2.12
2017-12-10T13:29:57.485Z,2.11
2017-12-10T13:31:24.826Z,2.14
2017-12-10T13:32:51.986Z,2.15
2017-12-10T13:34:20.115Z,2.21
2017-12-10T13:35:46.332Z,2.20
2017-12-10T13:37:14.690Z,2.18
2017-12-10T13:38:40.739Z,2.15
2017-12-10T13:40:07.854Z,2.14
2017-12-10T13:41:35.915Z,2.05
2017-12-10T13:43:02.045Z,2.05
2017-12-10T13:44:29.333Z,2.01
2017-12-10T13:45:57.669Z,2.01
2017-12-10T13:47:23.928Z,1.99
2017-12-10T13:48:51.119Z,2.00
2017-12-10T13:50:19.369Z,1.96
2017-12-10T13:51:46.568Z,1.93
2017-12-10T13:53:12.775Z,1.90
2017-12-10T13:54:40.030Z,1.87
2017-12-10T13:56:07.145Z,1.88
2017-12-10T13:57:35.202Z,1.91
2017-12-10T13:59:02.261Z,1.92
2017-12-10T14:00:29.571Z,1.94
2017-12-10T14:01:55.897Z,1.94
2017-12-10T14:03:23.063Z,1.94
2017-12-10T14:04:50.173Z,1.94
2017-12-10T14:06:18.460Z,1.90
2017-12-10T14:07:45.443Z,1.91
2017-12-10T14:09:11.622Z,1.91
2017-12-10T14:10:39.812Z,1.86
2017-12-10T14:12:06.904Z,1.81
2017-12-10T14:13:33.087Z,1.73
2017-12-10T14:15:01.305Z,1.71
2017-12-10T14:16:28.280Z,1.69
2017-12-10T14:17:55.535Z,1.68
2017-12-10T14:19:21.797Z,1.70
2017-12-10T14:20:49.981Z,1.68
2017-12-10T14:22:15.855Z,1.57
2017-12-10T14:23:42.807Z,1.46
2017-12-10T14:25:10.005Z,1.41
2017-12-10T14:26:38.133Z,1.35
2017-12-10T14:28:03.939Z,1.30
2017-12-10T14:29:32.298Z,1.34
2017-12-10T14:30:58.285Z,1.33
2017-12-10T14:32:26.577Z,1.24
2017-12-10T14:33:53.751Z,1.25
2017-12-10T14:35:20.888Z,1.27
2017-12-10T14:36:48.094Z,1.20
2017-12-10T14:38:15.523Z,1.27
2017-12-10T14:39:41.468Z,1.31
2017-12-10T14:41:09.666Z,1.32
2017-12-10T14:42:36.775Z,1.37
2017-12-10T14:44:04.011Z,1.41
2017-12-10T14:45:30.122Z,1.44
2017-12-10T14:46:57.422Z,1.49
2017-12-10T14:48:24.654Z,1.50
2017-12-10T14:49:52.799Z,1.54
2017-12-10T14:51:20.049Z,1.58
2017-12-10T14:52:47.447Z,1.57
2017-12-10T14:54:13.636Z,1.60
2017-12-10T14:55:40.874Z,1.61
2017-12-10T14:57:09.117Z,1.61
2017-12-10T14:58:36.247Z,1.53
2017-12-10T15:00:02.517Z,1.56
2017-12-10T15:01:29.730Z,1.45
2017-12-10T15:02:56.842Z,1.36
2017-12-10T15:04:25.007Z,1.36
2017-12-10T15:05:51.041Z,1.37
2017-12-10T15:07:18.123Z,1.36
2017-12-10T15:08:45.220Z,1.41
2017-12-10T15:10:13.338Z,1.42
2017-12-10T15:11:40.585Z,1.35
2017-12-10T15:13:06.466Z,1.35
2017-12-10T15:14:34.620Z,1.38
2017-12-10T15:16:00.885Z,1.37
2017-12-10T15:17:34.160Z,1.38
2017-12-10T15:18:56.206Z,1.43
2017-12-10T15:20:23.249Z,1.44
2017-12-10T15:21:49.462Z,1.40
2017-12-10T15:23:16.729Z,1.41
2017-12-10T15:24:43.845Z,1.46
2017-12-10T15:26:11.986Z,1.43
2017-12-10T15:27:38.125Z,1.44
2017-12-10T15:29:06.176Z,1.45
2017-12-10T15:30:32.447Z,1.43
2017-12-10T15:32:00.517Z,1.45
2017-12-10T15:33:26.722Z,1.50
2017-12-10T15:34:55.043Z,1.54
2017-12-10T15:36:22.217Z,1.58
2017-12-10T15:37:49.228Z,1.62
2017-12-10T15:39:15.291Z,1.63
2017-12-10T15:40:42.447Z,1.59
2017-12-10T15:42:09.822Z,1.51
2017-12-10T15:43:36.716Z,1.51
2017-12-10T15:45:03.998Z,1.45
2017-12-10T15:46:31.177Z,1.46
2017-12-10T15:47:59.385Z,1.48
2017-12-10T15:49:26.662Z,1.49
2017-12-10T15:50:53.645Z,1.49
2017-12-10T15:52:19.827Z,1.52
2017-12-10T15:53:46.932Z,1.49
2017-12-10T15:55:15.101Z,1.49
2017-12-10T15:56:42.367Z,1.49
2017-12-10T15:58:09.429Z,1.46
2017-12-10T15:59:35.518Z,1.50
2017-12-10T16:01:02.694Z,1.52
2017-12-10T16:02:29.863Z,1.51
2017-12-10T16:03:56.976Z,1.54
2017-12-10T16:05:25.126Z,1.55
2017-12-10T16:06:52.221Z,1.53
2017-12-10T16:08:19.592Z,1.51
2017-12-10T16:09:46.698Z,1.50
2017-12-10T16:11:12.635Z,1.51
2017-12-10T16:12:40.913Z,1.42
2017-12-10T16:14:07.963Z,1.36
2017-12-10T16:15:34.959Z,1.40
2017-12-10T16:17:02.143Z,1.42
2017-12-10T16:18:29.188Z,1.44
2017-12-10T16:19:55.420Z,1.48
2017-12-10T16:21:23.592Z,1.43
2017-12-10T16:22:49.710Z,1.46
2017-12-10T16:24:16.900Z,1.49
2017-12-10T16:25:45.002Z,1.49
2017-12-10T16:27:11.389Z,1.48
2017-12-10T16:28:39.458Z,1.47
2017-12-10T16:30:06.689Z,1.47
2017-12-10T16:31:33.654Z,1.43
2017-12-10T16:33:00.986Z,1.44
2017-12-10T16:34:27.148Z,1.50
2017-12-10T16:35:55.193Z,1.52
2017-12-10T16:37:21.568Z,1.57
2017-12-10T16:38:49.693Z,1.58
2017-12-10T16:40:16.761Z,1.56
2017-12-10T16:41:43.958Z,1.55
2017-12-10T16:43:10.716Z,1.56
2017-12-10T16:44:37.033Z,1.53
2017-12-10T16:46:03.821Z,1.54
2017-12-10T16:47:31.022Z,1.57
2017-12-10T16:48:58.242Z,1.56
2017-12-10T16:50:25.500Z,1.54
2017-12-10T16:51:53.687Z,1.54
2017-12-10T16:53:20.908Z,1.54
2017-12-10T16:54:48.192Z,1.52
2017-12-10T16:56:14.420Z,1.54
2017-12-10T16:57:41.495Z,1.55
2017-12-10T16:59:08.755Z,1.56
2017-12-10T17:00:36.946Z,1.58
2017-12-10T17:02:04.281Z,1.56
2017-12-10T17:03:30.464Z,1.59
2017-12-10T17:04:58.521Z,1.60
2017-12-10T17:06:25.792Z,1.53
2017-12-10T17:07:52.899Z,1.53
2017-12-10T17:09:18.842Z,1.53
2017-12-10T17:10:46.158Z,1.51
2017-12-10T17:12:14.154Z,1.53
2017-12-10T17:13:41.304Z,1.53
2017-12-10T17:15:07.327Z,1.53
2017-12-10T17:16:35.284Z,1.52
2017-12-10T17:18:01.646Z,1.55
2017-12-10T17:19:29.896Z,1.55
2017-12-10T17:20:56.146Z,1.56
2017-12-10T17:22:24.253Z,1.53
2017-12-10T17:23:51.501Z,1.54
2017-12-10T17:25:18.781Z,1.50
2017-12-10T17:26:46.059Z,1.48
2017-12-10T17:28:13.139Z,1.44
2017-12-10T17:29:40.437Z,1.40
2017-12-10T17:31:06.487Z,1.33
2017-12-10T17:32:34.976Z,1.29
2017-12-10T17:34:01.164Z,1.29
2017-12-10T17:35:28.455Z,1.32
2017-12-10T17:36:55.870Z,1.31
2017-12-10T17:38:24.098Z,1.29
2017-12-10T17:39:51.351Z,1.28
2017-12-10T17:41:17.371Z,1.32
2017-12-10T17:42:44.481Z,1.32
2017-12-10T17:44:11.619Z,1.22
2017-12-10T17:45:39.667Z,1.22
2017-12-10T17:47:06.807Z,1.26
2017-12-10T17:48:33.074Z,1.25
2017-12-10T17:50:01.060Z,1.24
2017-12-10T17:51:28.206Z,1.26
2017-12-10T17:52:54.232Z,1.30
2017-12-10T17:54:21.415Z,1.28
2017-12-10T17:55:49.663Z,1.25
2017-12-10T17:57:16.695Z,1.08
2017-12-10T17:58:44.052Z,1.04
2017-12-10T18:00:10.151Z,1.05
2017-12-10T18:01:38.350Z,1.03
2017-12-10T18:03:04.430Z,1.01
2017-12-10T18:04:32.805Z,0.95
2017-12-10T18:05:59.972Z,0.89
2017-12-10T18:07:26.197Z,0.90
2017-12-10T18:08:53.379Z,0.92
2017-12-10T18:10:20.513Z,0.93
2017-12-10T18:11:47.523Z,0.98
2017-12-10T18:13:14.633Z,1.00
2017-12-10T18:14:42.692Z,0.99
2017-12-10T18:16:09.901Z,1.01
2017-12-10T18:17:36.002Z,0.97
2017-12-10T18:19:03.110Z,0.89
2017-12-10T18:20:31.258Z,0.79
2017-12-10T18:21:58.468Z,0.67
2017-12-10T18:23:24.853Z,0.58
2017-12-10T18:24:52.761Z,0.55
2017-12-10T18:26:19.923Z,0.57
2017-12-10T18:27:46.070Z,0.59
2017-12-10T18:29:14.300Z,0.55
2017-12-10T18:30:40.334Z,0.48
2017-12-10T18:32:08.326Z,0.41
2017-12-10T18:33:35.333Z,0.46
2017-12-10T18:35:02.656Z,0.43
2017-12-10T18:36:29.886Z,0.46
2017-12-10T18:37:56.865Z,0.50
2017-12-10T18:39:23.938Z,0.45
2017-12-10T18:40:50.996Z,0.42
2017-12-10T18:42:18.359Z,0.42
2017-12-10T18:43:45.311Z,0.37
2017-12-10T18:45:11.372Z,0.40
2017-12-10T18:46:38.371Z,0.33
2017-12-10T18:48:06.563Z,0.30
2017-12-10T18:49:32.775Z,0.23
2017-12-10T18:51:00.874Z,0.20
2017-12-10T18:52:28.096Z,0.17
2017-12-10T18:53:54.242Z,0.16
2017-12-10T18:55:22.377Z,0.16
2017-12-10T18:56:49.435Z,0.13
2017-12-10T18:58:16.698Z,0.13
2017-12-10T18:59:43.943Z,0.11
2017-12-10T19:01:09.981Z,0.07
2017-12-10T19:02:37.930Z,0.04
2017-12-10T19:04:04.624Z,0.05
2017-12-10T19:05:31.598Z,0.06
2017-12-10T19:06:58.793Z,0.09
2017-12-10T19:08:25.830Z,0.07
2017-12-10T19:09:53.026Z,0.08
2017-12-10T19:11:20.118Z,0.02
2017-12-10T19:12:47.069Z,-0.02
2017-12-10T19:14:14.219Z,-0.01
2017-12-10T19:15:40.532Z,-0.02
2017-12-10T19:17:07.578Z,-0.07
2017-12-10T19:18:34.607Z,-0.11
2017-12-10T19:20:01.842Z,-0.12
2017-12-10T19:21:29.186Z,-0.16